Time;durP1;ratioP1;P1;durP2;ratioP2;P2;SDS_P1;SDS_P2;PMS_P1;PMS_P2;Temp;Humidity;BMP_temperature;BMP_pressure;BME280_temperature;BME280_humidity;BME280_pressure;Samples;Min_cycle;Max_cycle;Signal;HPM_P1;HPM_P2
2024/02/19 00:00:00;;;;;;;4.70;2.17;;;;;;;;;;2056470;28;20022;-51
2024/02/19 00:01:01;;;;;;;3.58;2.00;;;;;;;;;;2055782;28;20075;-51
2024/02/19 00:02:02;;;;;;;4.82;2.05;;;;;;;;;;2048741;28;20641;-50
2024/02/19 00:03:04;;;;;;;3.22;2.00;;;;;;;;;;2052470;28;20023;-51
2024/02/19 00:04:05;;;;;;;3.60;1.77;;;;;;;;;;2056575;28;20490;-49
2024/02/19 00:05:06;;;;;;;3.17;2.10;;;;;;;;;;2056644;28;20053;-51
2024/02/19 00:06:09;;;;;;;3.28;1.67;;;;;;;;;;2054289;28;20031;-49
2024/02/19 00:07:10;;;;;;;2.90;1.73;;;;;;;;;;2056653;28;20031;-49
2024/02/19 00:08:11;;;;;;;4.35;1.95;;;;;;;;;;2056116;28;20007;-49
2024/02/19 00:09:13;;;;;;;3.03;1.92;;;;;;;;;;2056132;28;20030;-49
2024/02/19 00:10:14;;;;;;;3.17;2.10;;;;;;;;;;2056657;28;20037;-49
2024/02/19 00:11:15;;;;;;;4.28;2.03;;;;;;;;;;2054917;28;20026;-49
2024/02/19 00:12:17;;;;;;;4.78;2.13;;;;;;;;;;2057098;28;20526;-48
2024/02/19 00:13:18;;;;;;;2.55;1.80;;;;;;;;;;2056836;28;20389;-47
2024/02/19 00:14:20;;;;;;;4.00;1.80;;;;;;;;;;2055985;28;20051;-47
2024/02/19 00:15:21;;;;;;;5.30;2.20;;;;;;;;;;2063821;28;20018;-49
2024/02/19 00:16:22;;;;;;;3.30;1.88;;;;;;;;;;2067587;28;20443;-48
2024/02/19 00:17:23;;;;;;;3.30;2.10;;;;;;;;;;2056412;28;20034;-49
2024/02/19 00:18:25;;;;;;;2.58;1.63;;;;;;;;;;2056310;28;20030;-47
2024/02/19 00:19:27;;;;;;;3.10;1.88;;;;;;;;;;2056341;28;20631;-49
2024/02/19 00:20:28;;;;;;;4.22;2.40;;;;;;;;;;2056660;28;20502;-47
2024/02/19 00:21:29;;;;;;;3.25;1.98;;;;;;;;;;2056337;28;20102;-47
2024/02/19 00:22:30;;;;;;;3.70;2.08;;;;;;;;;;2056365;28;20462;-48
2024/02/19 00:23:34;;;;;;;4.40;2.10;;;;;;;;;;2056547;28;20038;-48
2024/02/19 00:24:35;;;;;;;3.80;2.20;;;;;;;;;;2056360;28;20025;-49
2024/02/19 00:25:44;;;;;;;4.55;2.55;;;;;;;;;;2053978;28;20038;-48
2024/02/19 00:26:45;;;;;;;2.55;1.75;;;;;;;;;;2056137;28;20027;-49
2024/02/19 00:27:46;;;;;;;3.83;2.15;;;;;;;;;;2063863;28;20015;-48
2024/02/19 00:28:47;;;;;;;4.85;2.10;;;;;;;;;;2063751;28;20028;-47
2024/02/19 00:29:49;;;;;;;4.43;1.73;;;;;;;;;;2055868;28;20153;-49
2024/02/19 00:30:50;;;;;;;3.50;2.10;;;;;;;;;;2056396;28;20035;-47
2024/02/19 00:31:51;;;;;;;6.80;2.85;;;;;;;;;;2056489;28;20366;-47
2024/02/19 00:32:53;;;;;;;3.85;1.90;;;;;;;;;;2056447;28;20019;-47
2024/02/19 00:33:54;;;;;;;2.95;1.63;;;;;;;;;;2056153;28;20015;-47
2024/02/19 00:34:56;;;;;;;5.78;1.88;;;;;;;;;;2056560;28;20019;-48
2024/02/19 00:35:57;;;;;;;6.10;3.03;;;;;;;;;;2056138;28;20102;-48
2024/02/19 00:36:59;;;;;;;3.38;1.73;;;;;;;;;;2056256;28;20504;-50
2024/02/19 00:38:00;;;;;;;3.55;2.13;;;;;;;;;;2055850;28;20047;-46
2024/02/19 00:39:01;;;;;;;3.25;1.75;;;;;;;;;;2055780;28;20031;-47
2024/02/19 00:40:03;;;;;;;3.03;1.83;;;;;;;;;;2055819;28;20023;-49
2024/02/19 00:41:04;;;;;;;3.78;1.73;;;;;;;;;;2055552;28;20051;-47
2024/02/19 00:42:05;;;;;;;2.95;2.13;;;;;;;;;;2056386;28;20332;-49
2024/02/19 00:43:06;;;;;;;3.60;2.17;;;;;;;;;;2056227;28;20261;-48
2024/02/19 00:44:08;;;;;;;3.67;1.90;;;;;;;;;;2056590;28;20023;-47
2024/02/19 00:45:09;;;;;;;2.42;1.70;;;;;;;;;;2051487;28;20019;-48
2024/02/19 00:46:11;;;;;;;3.05;1.70;;;;;;;;;;2055663;28;20031;-49
2024/02/19 00:47:12;;;;;;;2.50;1.60;;;;;;;;;;2055748;28;20509;-49
2024/02/19 00:48:13;;;;;;;3.00;1.85;;;;;;;;;;2052886;28;20011;-49
2024/02/19 00:49:15;;;;;;;2.65;1.50;;;;;;;;;;2056284;28;20035;-48
2024/02/19 00:50:16;;;;;;;2.47;1.50;;;;;;;;;;2048523;29;20102;-50
2024/02/19 00:51:17;;;;;;;2.10;1.40;;;;;;;;;;2051908;28;20031;-49
2024/02/19 00:52:19;;;;;;;2.47;1.52;;;;;;;;;;2056352;28;20094;-48
2024/02/19 00:53:20;;;;;;;1.75;1.35;;;;;;;;;;2056399;28;20023;-48
2024/02/19 00:54:21;;;;;;;2.83;1.40;;;;;;;;;;2056106;28;20050;-47
2024/02/19 00:55:22;;;;;;;2.35;1.35;;;;;;;;;;2056463;28;20077;-48
2024/02/19 00:56:23;;;;;;;4.15;2.10;;;;;;;;;;2055979;28;20498;-47
2024/02/19 00:57:25;;;;;;;2.38;1.45;;;;;;;;;;2056185;28;20030;-47
2024/02/19 00:58:26;;;;;;;2.80;1.60;;;;;;;;;;2056524;28;20074;-47
2024/02/19 00:59:27;;;;;;;2.58;1.50;;;;;;;;;;2056086;28;20046;-48
2024/02/19 01:00:28;;;;;;;2.00;1.30;;;;;;;;;;2056463;28;20055;-47
2024/02/19 01:01:31;;;;;;;2.80;1.55;;;;;;;;;;2056209;28;20031;-47
2024/02/19 01:02:32;;;;;;;3.20;1.70;;;;;;;;;;2056324;28;20023;-48
2024/02/19 01:03:33;;;;;;;3.60;1.83;;;;;;;;;;2056447;28;20105;-47
2024/02/19 01:04:35;;;;;;;3.17;1.60;;;;;;;;;;2056288;28;20054;-47
2024/02/19 01:05:36;;;;;;;2.30;1.42;;;;;;;;;;2055912;28;20125;-49
2024/02/19 01:06:38;;;;;;;3.08;1.60;;;;;;;;;;2056448;28;20094;-46
2024/02/19 01:07:40;;;;;;;3.53;1.85;;;;;;;;;;2055641;28;20109;-48
2024/02/19 01:08:42;;;;;;;3.08;1.75;;;;;;;;;;2055679;28;20034;-49
2024/02/19 01:09:43;;;;;;;2.78;1.60;;;;;;;;;;2056368;28;20062;-48
2024/02/19 01:10:44;;;;;;;2.78;1.70;;;;;;;;;;2057686;28;20386;-48
2024/02/19 01:11:46;;;;;;;3.75;1.77;;;;;;;;;;2057921;28;20103;-49
2024/02/19 01:12:47;;;;;;;3.58;1.75;;;;;;;;;;2057797;28;20031;-48
2024/02/19 01:13:48;;;;;;;4.05;1.80;;;;;;;;;;2057879;28;20478;-48
2024/02/19 01:14:49;;;;;;;4.47;2.05;;;;;;;;;;2057915;28;20737;-47
2024/02/19 01:15:51;;;;;;;4.13;1.83;;;;;;;;;;2057492;28;20051;-50
2024/02/19 01:16:52;;;;;;;2.50;1.70;;;;;;;;;;2057770;28;20041;-48
2024/02/19 01:17:53;;;;;;;2.83;1.70;;;;;;;;;;2057890;28;20130;-46
2024/02/19 01:18:54;;;;;;;3.10;1.88;;;;;;;;;;2057836;28;20019;-47
2024/02/19 01:19:57;;;;;;;3.65;2.10;;;;;;;;;;2057132;28;20082;-49
2024/02/19 01:20:58;;;;;;;3.10;2.00;;;;;;;;;;2057131;28;20470;-49
2024/02/19 01:21:59;;;;;;;3.80;1.80;;;;;;;;;;2055863;28;20073;-50
2024/02/19 01:23:00;;;;;;;3.65;2.20;;;;;;;;;;2051015;28;20038;-49
2024/02/19 01:24:02;;;;;;;3.40;2.03;;;;;;;;;;2057180;28;20025;-50
2024/02/19 01:25:03;;;;;;;2.53;1.88;;;;;;;;;;2050981;28;20023;-48
2024/02/19 01:26:05;;;;;;;4.78;2.20;;;;;;;;;;2057281;28;20030;-49
2024/02/19 01:27:10;;;;;;;4.18;2.03;;;;;;;;;;2057722;28;20557;-50
2024/02/19 01:28:11;;;;;;;5.00;2.20;;;;;;;;;;2057948;28;20022;-50
2024/02/19 01:29:12;;;;;;;3.83;2.10;;;;;;;;;;2057947;28;20114;-50
2024/02/19 01:30:14;;;;;;;4.28;1.90;;;;;;;;;;2056865;28;20022;-48
2024/02/19 01:31:16;;;;;;;5.28;1.85;;;;;;;;;;2057031;28;20042;-52
2024/02/19 01:32:17;;;;;;;2.83;1.90;;;;;;;;;;2057656;28;20026;-52
2024/02/19 01:33:21;;;;;;;3.70;2.17;;;;;;;;;;2056868;28;20098;-53
2024/02/19 01:34:22;;;;;;;5.32;2.30;;;;;;;;;;2056982;28;20069;-52
2024/02/19 01:35:23;;;;;;;5.18;2.38;;;;;;;;;;2057523;28;20455;-50
2024/02/19 01:36:24;;;;;;;3.28;1.95;;;;;;;;;;2057417;28;20026;-48
2024/02/19 01:37:26;;;;;;;3.78;2.00;;;;;;;;;;2057026;28;20163;-52
2024/02/19 01:38:27;;;;;;;3.58;1.73;;;;;;;;;;2056881;28;20026;-52
2024/02/19 01:39:28;;;;;;;3.33;2.08;;;;;;;;;;2057556;28;20055;-52
2024/02/19 01:40:29;;;;;;;4.95;2.05;;;;;;;;;;2057686;28;20529;-52
2024/02/19 01:41:31;;;;;;;3.45;2.03;;;;;;;;;;2057355;28;20034;-52
2024/02/19 01:42:32;;;;;;;2.42;1.73;;;;;;;;;;2057166;28;20015;-51
2024/02/19 01:43:33;;;;;;;3.03;1.88;;;;;;;;;;2057066;28;20007;-52
2024/02/19 01:44:36;;;;;;;5.53;1.80;;;;;;;;;;2056656;28;20018;-50
2024/02/19 01:45:38;;;;;;;3.85;2.47;;;;;;;;;;2057054;28;20094;-51
2024/02/19 01:46:40;;;;;;;3.30;1.88;;;;;;;;;;2061786;28;20017;-51
2024/02/19 01:47:41;;;;;;;3.75;1.65;;;;;;;;;;2056739;28;20034;-54
2024/02/19 01:48:42;;;;;;;5.60;2.10;;;;;;;;;;2057012;28;20027;-51
2024/02/19 01:49:44;;;;;;;3.55;1.83;;;;;;;;;;2057567;28;20027;-52
2024/02/19 01:50:47;;;;;;;3.30;2.08;;;;;;;;;;2057032;28;20069;-48
2024/02/19 01:51:49;;;;;;;3.85;1.75;;;;;;;;;;2056943;28;20033;-53
2024/02/19 01:52:51;;;;;;;4.43;2.22;;;;;;;;;;2057515;28;20023;-52
2024/02/19 01:53:53;;;;;;;3.55;2.05;;;;;;;;;;2056956;28;20406;-51
2024/02/19 01:54:54;;;;;;;3.35;2.00;;;;;;;;;;2056812;28;20085;-55
2024/02/19 01:55:55;;;;;;;3.00;1.58;;;;;;;;;;2057357;28;20043;-51
2024/02/19 01:56:57;;;;;;;4.72;1.70;;;;;;;;;;2057052;28;20030;-51
2024/02/19 01:57:58;;;;;;;2.60;1.63;;;;;;;;;;2056631;28;20073;-50
2024/02/19 01:59:00;;;;;;;2.85;1.60;;;;;;;;;;2050971;28;20030;-50
2024/02/19 02:00:10;;;;;;;2.90;1.55;;;;;;;;;;2054835;28;20025;-51
2024/02/19 02:01:13;;;;;;;4.10;1.80;;;;;;;;;;2057499;28;20026;-50
2024/02/19 02:02:14;;;;;;;3.40;2.00;;;;;;;;;;2057485;28;20054;-52
2024/02/19 02:03:17;;;;;;;3.03;1.65;;;;;;;;;;2057635;28;20102;-51
2024/02/19 02:04:19;;;;;;;3.00;1.85;;;;;;;;;;2057373;28;20058;-52
2024/02/19 02:05:20;;;;;;;3.53;1.77;;;;;;;;;;2049672;28;20118;-51
2024/02/19 02:06:23;;;;;;;3.75;1.75;;;;;;;;;;2057140;28;20042;-51
2024/02/19 02:07:25;;;;;;;4.57;2.20;;;;;;;;;;2057319;28;20030;-51
2024/02/19 02:08:27;;;;;;;2.92;1.88;;;;;;;;;;2065006;28;20026;-46
2024/02/19 02:09:28;;;;;;;2.47;1.55;;;;;;;;;;2064510;28;20014;-50
2024/02/19 02:10:29;;;;;;;2.88;1.80;;;;;;;;;;2057270;28;20109;-49
2024/02/19 02:11:30;;;;;;;2.47;1.40;;;;;;;;;;2056980;28;20034;-50
2024/02/19 02:12:32;;;;;;;3.75;1.67;;;;;;;;;;2056655;28;20027;-47
2024/02/19 02:13:36;;;;;;;2.92;1.67;;;;;;;;;;2057308;28;20527;-48
2024/02/19 02:14:37;;;;;;;3.40;1.52;;;;;;;;;;2057632;28;20031;-47
2024/02/19 02:15:38;;;;;;;3.35;1.50;;;;;;;;;;2055422;28;20512;-47
2024/02/19 02:16:40;;;;;;;2.55;1.60;;;;;;;;;;2057363;28;20066;-47
2024/02/19 02:17:43;;;;;;;2.58;1.70;;;;;;;;;;2057298;28;20031;-47
2024/02/19 02:18:44;;;;;;;2.97;1.80;;;;;;;;;;2054744;28;20212;-46
2024/02/19 02:19:46;;;;;;;2.97;1.50;;;;;;;;;;2049412;29;20458;-47
2024/02/19 02:20:47;;;;;;;3.03;1.60;;;;;;;;;;2056149;28;20026;-46
2024/02/19 02:21:49;;;;;;;2.65;1.60;;;;;;;;;;2056173;28;20023;-47
2024/02/19 02:22:50;;;;;;;3.22;1.40;;;;;;;;;;2057412;28;20011;-46
2024/02/19 02:23:51;;;;;;;3.83;1.58;;;;;;;;;;2057242;28;20031;-46
2024/02/19 02:24:53;;;;;;;3.35;1.67;;;;;;;;;;2057102;28;20030;-46
2024/02/19 02:25:54;;;;;;;3.08;1.58;;;;;;;;;;2057321;28;20047;-46
2024/02/19 02:26:55;;;;;;;4.10;1.85;;;;;;;;;;2057246;28;20038;-46
2024/02/19 02:27:57;;;;;;;2.25;1.50;;;;;;;;;;2057312;28;20078;-46
2024/02/19 02:28:58;;;;;;;3.33;1.60;;;;;;;;;;2057341;28;20030;-46
2024/02/19 02:30:02;;;;;;;4.18;1.52;;;;;;;;;;2056433;28;20022;-47
2024/02/19 02:31:04;;;;;;;4.22;1.63;;;;;;;;;;2065183;28;20022;-46
2024/02/19 02:32:05;;;;;;;2.60;1.60;;;;;;;;;;2066138;28;20048;-46
2024/02/19 02:33:07;;;;;;;2.20;1.40;;;;;;;;;;2052204;28;20018;-46
2024/02/19 02:34:08;;;;;;;4.05;1.70;;;;;;;;;;2057357;28;20047;-47
2024/02/19 02:35:09;;;;;;;2.88;1.83;;;;;;;;;;2057182;28;20023;-47
2024/02/19 02:36:12;;;;;;;1.98;1.23;;;;;;;;;;2057167;28;20042;-47
2024/02/19 02:37:14;;;;;;;2.22;1.70;;;;;;;;;;2057025;28;20568;-47
2024/02/19 02:38:16;;;;;;;2.92;1.50;;;;;;;;;;2056739;28;20145;-48
2024/02/19 02:39:19;;;;;;;3.50;1.70;;;;;;;;;;2056942;28;20426;-48
2024/02/19 02:40:20;;;;;;;2.20;1.50;;;;;;;;;;2064422;28;20121;-46
2024/02/19 02:41:21;;;;;;;2.05;1.65;;;;;;;;;;2063395;28;20015;-51
2024/02/19 02:42:23;;;;;;;3.40;2.13;;;;;;;;;;2049237;28;20077;-50
2024/02/19 02:43:24;;;;;;;4.88;1.98;;;;;;;;;;2054097;28;20105;-48
2024/02/19 02:44:25;;;;;;;2.35;1.77;;;;;;;;;;2056295;28;20029;-50
2024/02/19 02:45:26;;;;;;;4.93;2.15;;;;;;;;;;2056458;28;20015;-50
2024/02/19 02:46:27;;;;;;;3.05;2.15;;;;;;;;;;2053554;28;20022;-50
2024/02/19 02:47:29;;;;;;;3.78;2.22;;;;;;;;;;2057145;28;20054;-50
2024/02/19 02:48:30;;;;;;;3.75;2.20;;;;;;;;;;2056969;28;20026;-49
2024/02/19 02:49:33;;;;;;;3.28;1.85;;;;;;;;;;2057081;28;20047;-50
2024/02/19 02:50:34;;;;;;;2.47;1.60;;;;;;;;;;2057125;28;20373;-50
2024/02/19 02:51:35;;;;;;;5.35;1.73;;;;;;;;;;2056117;28;20023;-51
2024/02/19 02:52:37;;;;;;;3.92;2.30;;;;;;;;;;2056503;28;20119;-50
2024/02/19 02:53:38;;;;;;;2.78;1.90;;;;;;;;;;2057308;28;20030;-50
2024/02/19 02:54:39;;;;;;;3.17;1.75;;;;;;;;;;2056931;28;20023;-49
2024/02/19 02:55:42;;;;;;;3.72;1.77;;;;;;;;;;2049379;28;20482;-49
2024/02/19 02:56:43;;;;;;;3.08;1.77;;;;;;;;;;2056182;28;20038;-46
2024/02/19 02:57:44;;;;;;;3.05;1.80;;;;;;;;;;2056523;28;20070;-46
2024/02/19 02:58:49;;;;;;;4.32;1.73;;;;;;;;;;2054427;28;20026;-47
2024/02/19 02:59:50;;;;;;;2.55;1.42;;;;;;;;;;2057228;28;20376;-46
2024/02/19 03:00:52;;;;;;;3.88;1.60;;;;;;;;;;2056662;28;20019;-47
2024/02/19 03:01:53;;;;;;;4.60;1.70;;;;;;;;;;2056932;28;20104;-47
2024/02/19 03:02:55;;;;;;;2.20;1.60;;;;;;;;;;2056751;28;20350;-48
2024/02/19 03:03:56;;;;;;;4.22;1.50;;;;;;;;;;2057049;28;20073;-48
2024/02/19 03:04:58;;;;;;;2.60;1.30;;;;;;;;;;2056867;28;20026;-48
2024/02/19 03:05:59;;;;;;;2.50;1.45;;;;;;;;;;2056617;28;20496;-47
2024/02/19 03:07:00;;;;;;;2.67;1.30;;;;;;;;;;2056773;28;20031;-47
2024/02/19 03:08:02;;;;;;;2.38;1.48;;;;;;;;;;2056505;28;20030;-48
2024/02/19 03:09:05;;;;;;;2.38;1.42;;;;;;;;;;2056224;28;20031;-47
2024/02/19 03:10:06;;;;;;;3.63;1.25;;;;;;;;;;2056974;28;20522;-51
2024/02/19 03:11:08;;;;;;;2.95;1.50;;;;;;;;;;2056349;28;20073;-49
2024/02/19 03:12:09;;;;;;;2.53;1.70;;;;;;;;;;2048233;28;20031;-49
2024/02/19 03:13:11;;;;;;;2.65;1.50;;;;;;;;;;2056233;28;20085;-49
2024/02/19 03:14:13;;;;;;;2.63;1.40;;;;;;;;;;2056756;28;20034;-49
2024/02/19 03:15:14;;;;;;;3.13;1.58;;;;;;;;;;2056866;28;20102;-51
2024/02/19 03:16:17;;;;;;;1.77;1.30;;;;;;;;;;2056671;28;20029;-50
2024/02/19 03:17:19;;;;;;;2.40;1.58;;;;;;;;;;2056749;28;20027;-50
2024/02/19 03:18:20;;;;;;;2.72;1.70;;;;;;;;;;2056877;28;20030;-50
2024/02/19 03:19:22;;;;;;;2.72;1.55;;;;;;;;;;2056737;28;20022;-48
2024/02/19 03:20:23;;;;;;;3.30;1.90;;;;;;;;;;2056786;28;20382;-49
2024/02/19 03:21:25;;;;;;;2.20;1.60;;;;;;;;;;2056896;28;20082;-50
2024/02/19 03:22:26;;;;;;;2.58;1.42;;;;;;;;;;2056174;28;20702;-50
2024/02/19 03:23:28;;;;;;;3.10;1.38;;;;;;;;;;2056281;28;20023;-50
2024/02/19 03:24:29;;;;;;;2.35;1.50;;;;;;;;;;2064395;28;20033;-49
2024/02/19 03:25:30;;;;;;;3.03;1.60;;;;;;;;;;2056941;28;20022;-49
2024/02/19 03:26:32;;;;;;;2.22;1.55;;;;;;;;;;2054838;28;20063;-50
2024/02/19 03:27:33;;;;;;;2.40;1.60;;;;;;;;;;2056493;28;20114;-49
2024/02/19 03:28:34;;;;;;;3.60;1.58;;;;;;;;;;2054307;28;21482;-49
2024/02/19 03:29:36;;;;;;;2.85;1.70;;;;;;;;;;2048971;29;20030;-47
2024/02/19 03:30:37;;;;;;;2.33;1.25;;;;;;;;;;2049899;28;20035;-47
2024/02/19 03:31:39;;;;;;;3.42;1.70;;;;;;;;;;2055964;28;20015;-47
2024/02/19 03:32:40;;;;;;;2.58;1.40;;;;;;;;;;2056440;28;20030;-47
2024/02/19 03:33:41;;;;;;;3.60;1.35;;;;;;;;;;2056875;28;20027;-46
2024/02/19 03:34:43;;;;;;;3.10;1.83;;;;;;;;;;2056633;28;20035;-48
2024/02/19 03:35:44;;;;;;;2.53;1.35;;;;;;;;;;2056655;28;20111;-48
2024/02/19 03:36:51;;;;;;;3.00;1.33;;;;;;;;;;2056079;28;20026;-47
2024/02/19 03:37:53;;;;;;;2.30;1.33;;;;;;;;;;2055994;28;20030;-47
2024/02/19 03:38:54;;;;;;;3.33;1.45;;;;;;;;;;2056443;28;20663;-48
2024/02/19 03:39:55;;;;;;;2.28;1.42;;;;;;;;;;2056748;28;20498;-47
2024/02/19 03:40:56;;;;;;;2.65;1.63;;;;;;;;;;2056770;28;20026;-47
2024/02/19 03:41:59;;;;;;;2.47;1.35;;;;;;;;;;2056827;28;20538;-46
2024/02/19 03:43:00;;;;;;;3.80;1.65;;;;;;;;;;2056029;28;20027;-47
2024/02/19 03:44:01;;;;;;;3.22;2.03;;;;;;;;;;2056097;28;20516;-46
2024/02/19 03:45:04;;;;;;;2.90;1.50;;;;;;;;;;2056886;28;20031;-46
2024/02/19 03:46:05;;;;;;;3.60;1.55;;;;;;;;;;2055799;28;20426;-47
2024/02/19 03:47:07;;;;;;;3.13;1.77;;;;;;;;;;2051752;28;20059;-46
2024/02/19 03:48:08;;;;;;;2.58;1.63;;;;;;;;;;2056871;28;20038;-47
2024/02/19 03:49:09;;;;;;;3.47;1.83;;;;;;;;;;2056508;28;20083;-47
2024/02/19 03:50:11;;;;;;;2.97;1.65;;;;;;;;;;2056707;28;20379;-47
2024/02/19 03:51:12;;;;;;;2.75;1.70;;;;;;;;;;2056184;28;20038;-48
2024/02/19 03:52:14;;;;;;;2.50;1.30;;;;;;;;;;2055934;28;20110;-48
2024/02/19 03:53:15;;;;;;;3.97;1.55;;;;;;;;;;2056686;28;20034;-48
2024/02/19 03:54:16;;;;;;;3.25;1.90;;;;;;;;;;2056449;28;20493;-47
2024/02/19 03:55:17;;;;;;;2.50;1.35;;;;;;;;;;2056517;28;20490;-47
2024/02/19 03:56:19;;;;;;;1.85;1.20;;;;;;;;;;2056622;28;20031;-46
2024/02/19 03:57:22;;;;;;;1.95;1.30;;;;;;;;;;2052287;28;20030;-47
2024/02/19 03:58:24;;;;;;;2.25;1.70;;;;;;;;;;2050281;28;20058;-47
2024/02/19 03:59:26;;;;;;;3.35;1.75;;;;;;;;;;2056706;28;20121;-48
2024/02/19 04:00:27;;;;;;;1.83;1.10;;;;;;;;;;2054162;28;20029;-48
2024/02/19 04:01:28;;;;;;;2.53;1.40;;;;;;;;;;2052832;28;20114;-47
2024/02/19 04:02:29;;;;;;;2.50;1.30;;;;;;;;;;2056024;28;20026;-48
2024/02/19 04:03:31;;;;;;;2.53;1.42;;;;;;;;;;2056400;28;20011;-52
2024/02/19 04:04:32;;;;;;;2.28;1.35;;;;;;;;;;2056111;28;20011;-52
2024/02/19 04:05:33;;;;;;;2.75;1.35;;;;;;;;;;2055707;28;20007;-52
2024/02/19 04:06:34;;;;;;;2.22;1.58;;;;;;;;;;2056566;28;20019;-52
2024/02/19 04:07:36;;;;;;;2.58;1.25;;;;;;;;;;2056612;28;20030;-52
2024/02/19 04:08:38;;;;;;;2.28;1.35;;;;;;;;;;2055830;28;20089;-50
2024/02/19 04:09:40;;;;;;;2.55;1.38;;;;;;;;;;2056130;28;20050;-52
2024/02/19 04:10:41;;;;;;;2.92;1.55;;;;;;;;;;2063664;28;20030;-49
2024/02/19 04:11:42;;;;;;;2.70;1.33;;;;;;;;;;2056194;28;20401;-52
2024/02/19 04:12:44;;;;;;;1.83;1.23;;;;;;;;;;2056620;28;20023;-50
2024/02/19 04:13:45;;;;;;;4.28;1.63;;;;;;;;;;2056492;28;20022;-50
2024/02/19 04:14:46;;;;;;;2.65;1.60;;;;;;;;;;2056455;28;20049;-51
2024/02/19 04:15:47;;;;;;;3.00;1.63;;;;;;;;;;2048990;28;20486;-49
2024/02/19 04:16:49;;;;;;;2.47;1.30;;;;;;;;;;2056472;28;20081;-49
2024/02/19 04:17:50;;;;;;;3.45;1.85;;;;;;;;;;2056385;28;20023;-48
2024/02/19 04:18:51;;;;;;;4.03;1.65;;;;;;;;;;2056709;28;20023;-49
2024/02/19 04:19:56;;;;;;;3.20;1.35;;;;;;;;;;2056362;28;20033;-49
2024/02/19 04:20:58;;;;;;;2.72;1.52;;;;;;;;;;2056254;28;20019;-49
2024/02/19 04:21:59;;;;;;;2.33;1.33;;;;;;;;;;2056283;28;20107;-49
2024/02/19 04:23:00;;;;;;;2.42;1.50;;;;;;;;;;2056426;28;20033;-49
2024/02/19 04:24:02;;;;;;;4.35;1.80;;;;;;;;;;2056416;28;20045;-51
2024/02/19 04:25:03;;;;;;;3.13;1.45;;;;;;;;;;2056458;28;20393;-49
2024/02/19 04:26:04;;;;;;;2.95;1.90;;;;;;;;;;2056410;28;20050;-49
2024/02/19 04:27:06;;;;;;;2.28;1.55;;;;;;;;;;2056581;28;20026;-51
2024/02/19 04:28:07;;;;;;;4.60;1.80;;;;;;;;;;2055883;28;20719;-48
2024/02/19 04:29:11;;;;;;;2.60;1.60;;;;;;;;;;2055829;28;20019;-49
2024/02/19 04:30:12;;;;;;;3.33;1.60;;;;;;;;;;2048502;29;20030;-51
2024/02/19 04:31:14;;;;;;;2.83;1.80;;;;;;;;;;2055473;28;20490;-52
2024/02/19 04:32:15;;;;;;;5.45;1.80;;;;;;;;;;2056574;28;20042;-50
2024/02/19 04:33:16;;;;;;;2.92;1.85;;;;;;;;;;2056546;28;20441;-51
2024/02/19 04:34:18;;;;;;;3.67;1.77;;;;;;;;;;2055706;28;20023;-48
2024/02/19 04:35:19;;;;;;;2.15;1.55;;;;;;;;;;2055783;28;20149;-51
2024/02/19 04:36:20;;;;;;;6.47;1.77;;;;;;;;;;2056353;28;20561;-52
2024/02/19 04:37:22;;;;;;;3.90;1.70;;;;;;;;;;2055900;28;20027;-54
2024/02/19 04:38:23;;;;;;;4.03;1.70;;;;;;;;;;2056540;28;20021;-51
2024/02/19 04:39:24;;;;;;;2.67;1.60;;;;;;;;;;2056184;28;20390;-51
2024/02/19 04:40:26;;;;;;;3.45;1.70;;;;;;;;;;2056540;28;20121;-53
2024/02/19 04:41:27;;;;;;;4.20;1.80;;;;;;;;;;2050998;28;20016;-52
2024/02/19 04:42:28;;;;;;;5.03;1.73;;;;;;;;;;2053983;28;20469;-51
2024/02/19 04:43:29;;;;;;;2.65;1.50;;;;;;;;;;2056384;28;20100;-50
2024/02/19 04:44:31;;;;;;;3.88;1.45;;;;;;;;;;2056367;28;20035;-51
2024/02/19 04:45:32;;;;;;;3.33;1.80;;;;;;;;;;2057588;28;20418;-51
2024/02/19 04:46:34;;;;;;;2.72;1.83;;;;;;;;;;2058229;28;20069;-53
2024/02/19 04:47:35;;;;;;;2.75;1.80;;;;;;;;;;2057968;28;20046;-53
2024/02/19 04:48:37;;;;;;;2.50;1.60;;;;;;;;;;2058048;28;20030;-49
2024/02/19 04:49:38;;;;;;;3.30;1.70;;;;;;;;;;2050089;28;20743;-47
2024/02/19 04:50:39;;;;;;;2.40;1.50;;;;;;;;;;2057382;28;20034;-49
2024/02/19 04:51:40;;;;;;;3.15;1.70;;;;;;;;;;2057436;28;20034;-50
2024/02/19 04:52:43;;;;;;;3.35;1.80;;;;;;;;;;2057461;28;20110;-51
2024/02/19 04:53:45;;;;;;;2.78;1.70;;;;;;;;;;2057338;28;20022;-51
2024/02/19 04:54:46;;;;;;;5.80;2.10;;;;;;;;;;2057391;28;20035;-52
2024/02/19 04:55:47;;;;;;;2.38;1.63;;;;;;;;;;2057284;28;20022;-51
2024/02/19 04:56:48;;;;;;;2.75;2.00;;;;;;;;;;2057740;28;20018;-48
2024/02/19 04:57:50;;;;;;;2.53;1.70;;;;;;;;;;2058061;28;20023;-50
2024/02/19 04:58:51;;;;;;;2.65;1.70;;;;;;;;;;2057896;28;20432;-51
2024/02/19 04:59:52;;;;;;;3.42;1.67;;;;;;;;;;2055729;28;20014;-49
2024/02/19 05:00:53;;;;;;;3.45;1.75;;;;;;;;;;2055028;28;20480;-49
2024/02/19 05:01:55;;;;;;;4.35;2.15;;;;;;;;;;2055586;28;20034;-50
2024/02/19 05:02:57;;;;;;;3.88;1.70;;;;;;;;;;2057520;28;20045;-49
2024/02/19 05:03:58;;;;;;;3.13;1.98;;;;;;;;;;2057731;28;20031;-50
2024/02/19 05:05:00;;;;;;;4.85;2.38;;;;;;;;;;2057303;28;20027;-50
2024/02/19 05:06:01;;;;;;;2.85;1.75;;;;;;;;;;2049945;28;20023;-50
2024/02/19 05:07:02;;;;;;;4.07;1.83;;;;;;;;;;2050166;28;20067;-49
2024/02/19 05:08:04;;;;;;;3.42;2.10;;;;;;;;;;2049976;29;20082;-50
2024/02/19 05:09:05;;;;;;;3.53;1.90;;;;;;;;;;2057831;28;20027;-50
2024/02/19 05:10:07;;;;;;;2.80;1.90;;;;;;;;;;2057724;28;20039;-50
2024/02/19 05:11:08;;;;;;;4.03;2.15;;;;;;;;;;2057910;28;20062;-51
2024/02/19 05:12:09;;;;;;;2.90;2.05;;;;;;;;;;2057890;28;20023;-50
2024/02/19 05:13:11;;;;;;;8.02;3.95;;;;;;;;;;2057689;28;20094;-50
2024/02/19 05:14:12;;;;;;;4.43;2.08;;;;;;;;;;2057944;28;20031;-50
2024/02/19 05:15:13;;;;;;;3.30;2.08;;;;;;;;;;2056079;28;20058;-50
2024/02/19 05:16:15;;;;;;;3.95;2.20;;;;;;;;;;2057683;28;20026;-49
2024/02/19 05:17:16;;;;;;;3.95;1.55;;;;;;;;;;2057112;28;20022;-50
2024/02/19 05:18:18;;;;;;;4.03;1.83;;;;;;;;;;2057127;28;20418;-51
2024/02/19 05:19:19;;;;;;;5.28;1.88;;;;;;;;;;2065386;28;20117;-51
2024/02/19 05:20:20;;;;;;;2.38;1.70;;;;;;;;;;2064923;28;20025;-50
2024/02/19 05:21:21;;;;;;;3.13;1.85;;;;;;;;;;2057619;28;20023;-48
2024/02/19 05:22:23;;;;;;;2.20;1.48;;;;;;;;;;2057591;28;20023;-49
2024/02/19 05:23:24;;;;;;;1.80;1.38;;;;;;;;;;2052102;28;20030;-49
2024/02/19 05:24:25;;;;;;;3.10;1.77;;;;;;;;;;2050975;28;20019;-50
2024/02/19 05:25:27;;;;;;;1.85;1.30;;;;;;;;;;2057889;28;20041;-50
2024/02/19 05:26:28;;;;;;;4.80;1.73;;;;;;;;;;2057733;28;20390;-47
2024/02/19 05:27:30;;;;;;;2.67;1.45;;;;;;;;;;2065077;28;20024;-49
2024/02/19 05:28:35;;;;;;;2.28;1.48;;;;;;;;;;2064667;28;20030;-48
2024/02/19 05:29:36;;;;;;;3.20;1.85;;;;;;;;;;2057618;28;20323;-48
2024/02/19 05:30:37;;;;;;;2.67;1.55;;;;;;;;;;2061403;28;20029;-47
2024/02/19 05:31:39;;;;;;;2.95;1.58;;;;;;;;;;2059698;28;20047;-49
2024/02/19 05:32:41;;;;;;;2.75;1.38;;;;;;;;;;2062336;28;20469;-48
2024/02/19 05:33:42;;;;;;;2.67;1.60;;;;;;;;;;2057354;28;20141;-48
2024/02/19 05:34:43;;;;;;;3.85;1.63;;;;;;;;;;2057545;28;20369;-47
2024/02/19 05:35:45;;;;;;;3.58;1.55;;;;;;;;;;2059849;28;20022;-49
2024/02/19 05:36:47;;;;;;;2.83;1.88;;;;;;;;;;2058091;28;20470;-48
2024/02/19 05:37:48;;;;;;;2.65;1.80;;;;;;;;;;2057895;28;20117;-50
2024/02/19 05:38:49;;;;;;;4.63;2.05;;;;;;;;;;2059699;28;20046;-48
2024/02/19 05:39:50;;;;;;;3.90;1.50;;;;;;;;;;2054859;28;20042;-48
2024/02/19 05:40:52;;;;;;;2.67;1.70;;;;;;;;;;2064592;28;20381;-47
2024/02/19 05:41:53;;;;;;;4.47;1.90;;;;;;;;;;2057354;28;20791;-46
2024/02/19 05:42:55;;;;;;;4.10;1.77;;;;;;;;;;2055908;28;20098;-49
2024/02/19 05:43:57;;;;;;;3.95;2.10;;;;;;;;;;2060344;28;20421;-52
2024/02/19 05:44:59;;;;;;;2.75;1.90;;;;;;;;;;2057062;28;20105;-48
2024/02/19 05:46:00;;;;;;;3.28;1.67;;;;;;;;;;2056439;28;20434;-49
2024/02/19 05:47:01;;;;;;;5.55;1.92;;;;;;;;;;2057709;28;20015;-48
2024/02/19 05:48:02;;;;;;;4.75;1.52;;;;;;;;;;2057858;28;20019;-48
2024/02/19 05:49:04;;;;;;;3.13;1.73;;;;;;;;;;2058255;28;20034;-48
2024/02/19 05:50:06;;;;;;;3.85;1.80;;;;;;;;;;2057869;28;20482;-48
2024/02/19 05:51:07;;;;;;;3.42;1.95;;;;;;;;;;2057871;28;20022;-48
2024/02/19 05:52:08;;;;;;;2.50;1.50;;;;;;;;;;2058887;28;20098;-49
2024/02/19 05:53:10;;;;;;;4.57;1.80;;;;;;;;;;2059476;28;20045;-50
2024/02/19 05:54:11;;;;;;;3.67;1.80;;;;;;;;;;2058803;28;20355;-49
2024/02/19 05:55:12;;;;;;;2.28;1.48;;;;;;;;;;2057764;28;20033;-50
2024/02/19 05:56:14;;;;;;;3.40;1.77;;;;;;;;;;2050917;28;20054;-49
2024/02/19 05:57:15;;;;;;;3.05;1.70;;;;;;;;;;2053921;28;20026;-55
2024/02/19 05:58:16;;;;;;;3.83;2.08;;;;;;;;;;2056655;28;20023;-48
2024/02/19 05:59:17;;;;;;;7.07;1.70;;;;;;;;;;2057688;28;20030;-49
2024/02/19 06:00:19;;;;;;;4.35;1.67;;;;;;;;;;2054132;28;20026;-50
2024/02/19 06:01:20;;;;;;;4.03;1.90;;;;;;;;;;2057310;28;20022;-49
2024/02/19 06:02:21;;;;;;;5.22;1.83;;;;;;;;;;2057793;28;20026;-49
2024/02/19 06:03:24;;;;;;;3.45;1.70;;;;;;;;;;2057926;28;20030;-48
2024/02/19 06:04:25;;;;;;;4.70;1.70;;;;;;;;;;2057526;28;20023;-48
2024/02/19 06:05:27;;;;;;;2.30;1.48;;;;;;;;;;2057445;28;20015;-50
2024/02/19 06:06:28;;;;;;;3.25;1.55;;;;;;;;;;2057616;28;20497;-49
2024/02/19 06:07:29;;;;;;;3.78;1.48;;;;;;;;;;2057564;28;20023;-49
2024/02/19 06:08:31;;;;;;;3.90;1.70;;;;;;;;;;2057152;28;20018;-49